sensor_id;sensor_type;location;lat;lon;timestamp;temperature;humidity
26272;DHT22;13997;48.902;12.472;2023-05-07T00:00:23;333.30;2329.60
26272;DHT22;13997;48.902;12.472;2023-05-07T00:02:49;333.20;2329.60
26272;DHT22;13997;48.902;12.472;2023-05-07T00:05:15;333.20;2329.60
26272;DHT22;13997;48.902;12.472;2023-05-07T00:07:41;333.20;2329.60
26272;DHT22;13997;48.902;12.472;2023-05-07T00:10:07;333.10;2329.60
26272;DHT22;13997;48.902;12.472;2023-05-07T00:12:33;333.10;2329.60
26272;DHT22;13997;48.902;12.472;2023-05-07T00:15:05;333.10;2329.60
26272;DHT22;13997;48.902;12.472;2023-05-07T00:17:32;333.10;2329.60
26272;DHT22;13997;48.902;12.472;2023-05-07T00:19:58;333.00;2329.60
26272;DHT22;13997;48.902;12.472;2023-05-07T00:22:23;332.90;2329.60
26272;DHT22;13997;48.902;12.472;2023-05-07T00:24:49;332.90;2329.60
26272;DHT22;13997;48.902;12.472;2023-05-07T00:27:14;332.90;2329.60
26272;DHT22;13997;48.902;12.472;2023-05-07T00:29:40;332.90;2329.60
26272;DHT22;13997;48.902;12.472;2023-05-07T00:32:05;332.90;2329.60
26272;DHT22;13997;48.902;12.472;2023-05-07T00:34:31;332.80;2329.60
26272;DHT22;13997;48.902;12.472;2023-05-07T00:36:57;332.80;2329.60
26272;DHT22;13997;48.902;12.472;2023-05-07T00:39:22;332.80;2329.60
26272;DHT22;13997;48.902;12.472;2023-05-07T00:41:48;308.10;2304.00
26272;DHT22;13997;48.902;12.472;2023-05-07T00:44:14;308.10;2304.00
26272;DHT22;13997;48.902;12.472;2023-05-07T00:46:40;308.10;2304.00
26272;DHT22;13997;48.902;12.472;2023-05-07T00:49:06;308.00;2304.00
26272;DHT22;13997;48.902;12.472;2023-05-07T00:51:32;308.00;2304.00
26272;DHT22;13997;48.902;12.472;2023-05-07T00:53:59;308.00;2304.00
26272;DHT22;13997;48.902;12.472;2023-05-07T00:56:25;308.00;2304.00
26272;DHT22;13997;48.902;12.472;2023-05-07T00:58:50;308.00;2304.00
26272;DHT22;13997;48.902;12.472;2023-05-07T01:01:16;308.00;2304.00
26272;DHT22;13997;48.902;12.472;2023-05-07T01:03:42;307.90;2304.00
26272;DHT22;13997;48.902;12.472;2023-05-07T01:06:08;307.90;2304.00
26272;DHT22;13997;48.902;12.472;2023-05-07T01:08:38;307.80;2304.00
26272;DHT22;13997;48.902;12.472;2023-05-07T01:11:06;307.80;2304.00
26272;DHT22;13997;48.902;12.472;2023-05-07T01:13:33;307.80;2304.00
26272;DHT22;13997;48.902;12.472;2023-05-07T01:15:59;307.80;2304.00
26272;DHT22;13997;48.902;12.472;2023-05-07T01:18:25;307.80;2304.00
26272;DHT22;13997;48.902;12.472;2023-05-07T01:20:52;307.80;2304.00
26272;DHT22;13997;48.902;12.472;2023-05-07T01:23:18;307.70;2304.00
26272;DHT22;13997;48.902;12.472;2023-05-07T01:25:50;307.70;2304.00
26272;DHT22;13997;48.902;12.472;2023-05-07T01:28:16;307.60;2304.00
26272;DHT22;13997;48.902;12.472;2023-05-07T01:30:49;307.60;2304.00
26272;DHT22;13997;48.902;12.472;2023-05-07T01:33:19;307.60;2304.00
26272;DHT22;13997;48.902;12.472;2023-05-07T01:35:49;307.60;2304.00
26272;DHT22;13997;48.902;12.472;2023-05-07T01:38:16;307.50;2304.00
26272;DHT22;13997;48.902;12.472;2023-05-07T01:40:41;307.50;2304.00
26272;DHT22;13997;48.902;12.472;2023-05-07T01:43:08;307.50;2304.00
26272;DHT22;13997;48.902;12.472;2023-05-07T01:45:35;307.40;2304.00
26272;DHT22;13997;48.902;12.472;2023-05-07T01:48:02;307.50;2304.00
26272;DHT22;13997;48.902;12.472;2023-05-07T01:50:28;307.40;2304.00
26272;DHT22;13997;48.902;12.472;2023-05-07T01:52:55;307.50;2304.00
26272;DHT22;13997;48.902;12.472;2023-05-07T01:55:21;307.50;2304.00
26272;DHT22;13997;48.902;12.472;2023-05-07T01:57:46;307.40;2304.00
26272;DHT22;13997;48.902;12.472;2023-05-07T02:00:12;307.40;2304.00
26272;DHT22;13997;48.902;12.472;2023-05-07T02:02:38;307.40;2304.00
26272;DHT22;13997;48.902;12.472;2023-05-07T02:05:04;307.30;2304.00
26272;DHT22;13997;48.902;12.472;2023-05-07T02:07:30;307.30;2304.00
26272;DHT22;13997;48.902;12.472;2023-05-07T02:09:55;307.30;2304.00
26272;DHT22;13997;48.902;12.472;2023-05-07T02:12:22;307.20;2304.00
26272;DHT22;13997;48.902;12.472;2023-05-07T02:14:47;307.20;2304.00
26272;DHT22;13997;48.902;12.472;2023-05-07T02:17:13;307.20;2304.00
26272;DHT22;13997;48.902;12.472;2023-05-07T02:19:38;307.20;2304.00
26272;DHT22;13997;48.902;12.472;2023-05-07T02:22:04;307.20;2304.00
26272;DHT22;13997;48.902;12.472;2023-05-07T02:24:29;307.20;2304.00
26272;DHT22;13997;48.902;12.472;2023-05-07T02:26:55;307.20;2304.00
26272;DHT22;13997;48.902;12.472;2023-05-07T02:29:21;307.20;2304.00
26272;DHT22;13997;48.902;12.472;2023-05-07T02:31:46;282.50;2278.40
26272;DHT22;13997;48.902;12.472;2023-05-07T02:34:18;282.50;2278.40
26272;DHT22;13997;48.902;12.472;2023-05-07T02:36:44;282.50;2278.40
26272;DHT22;13997;48.902;12.472;2023-05-07T02:39:11;282.50;2278.40
26272;DHT22;13997;48.902;12.472;2023-05-07T02:41:37;282.40;2278.40
26272;DHT22;13997;48.902;12.472;2023-05-07T02:44:02;282.40;2278.40
26272;DHT22;13997;48.902;12.472;2023-05-07T02:46:28;282.40;2278.40
26272;DHT22;13997;48.902;12.472;2023-05-07T02:48:54;282.40;2278.40
26272;DHT22;13997;48.902;12.472;2023-05-07T02:51:21;282.40;2278.40
26272;DHT22;13997;48.902;12.472;2023-05-07T02:53:46;282.40;2278.40
26272;DHT22;13997;48.902;12.472;2023-05-07T02:56:12;282.40;2278.40
26272;DHT22;13997;48.902;12.472;2023-05-07T02:58:38;282.40;2278.40
26272;DHT22;13997;48.902;12.472;2023-05-07T03:01:09;282.30;2278.40
26272;DHT22;13997;48.902;12.472;2023-05-07T03:03:35;282.30;2278.40
26272;DHT22;13997;48.902;12.472;2023-05-07T03:06:01;282.30;2278.40
26272;DHT22;13997;48.902;12.472;2023-05-07T03:08:27;282.20;2278.40
26272;DHT22;13997;48.902;12.472;2023-05-07T03:10:52;282.20;2278.40
26272;DHT22;13997;48.902;12.472;2023-05-07T03:13:18;282.20;2278.40
26272;DHT22;13997;48.902;12.472;2023-05-07T03:15:44;282.20;2278.40
26272;DHT22;13997;48.902;12.472;2023-05-07T03:18:09;282.20;2278.40
26272;DHT22;13997;48.902;12.472;2023-05-07T03:20:35;282.20;2278.40
26272;DHT22;13997;48.902;12.472;2023-05-07T03:23:02;282.20;2278.40
26272;DHT22;13997;48.902;12.472;2023-05-07T03:25:27;282.20;2278.40
26272;DHT22;13997;48.902;12.472;2023-05-07T03:27:53;282.10;2278.40
26272;DHT22;13997;48.902;12.472;2023-05-07T03:30:19;282.10;2278.40
26272;DHT22;13997;48.902;12.472;2023-05-07T03:32:45;282.10;2278.40
26272;DHT22;13997;48.902;12.472;2023-05-07T03:35:11;282.10;2278.40
26272;DHT22;13997;48.902;12.472;2023-05-07T03:37:37;282.10;2278.40
26272;DHT22;13997;48.902;12.472;2023-05-07T03:40:04;282.10;2278.40
26272;DHT22;13997;48.902;12.472;2023-05-07T03:42:29;282.10;2278.40
26272;DHT22;13997;48.902;12.472;2023-05-07T03:44:55;282.10;2278.40
26272;DHT22;13997;48.902;12.472;2023-05-07T03:47:21;282.00;2278.40
26272;DHT22;13997;48.902;12.472;2023-05-07T03:49:46;282.00;2278.40
26272;DHT22;13997;48.902;12.472;2023-05-07T03:52:13;281.90;2278.40
26272;DHT22;13997;48.902;12.472;2023-05-07T03:54:39;281.90;2278.40
26272;DHT22;13997;48.902;12.472;2023-05-07T03:57:04;281.90;2278.40
26272;DHT22;13997;48.902;12.472;2023-05-07T03:59:30;281.90;2278.40
26272;DHT22;13997;48.902;12.472;2023-05-07T04:01:55;281.90;2278.40
26272;DHT22;13997;48.902;12.472;2023-05-07T04:04:21;281.90;2278.40
26272;DHT22;13997;48.902;12.472;2023-05-07T04:06:47;281.90;2278.40
26272;DHT22;13997;48.902;12.472;2023-05-07T04:09:12;282.00;2278.40
26272;DHT22;13997;48.902;12.472;2023-05-07T04:11:38;282.00;2278.40
26272;DHT22;13997;48.902;12.472;2023-05-07T04:14:05;282.00;2278.40
26272;DHT22;13997;48.902;12.472;2023-05-07T04:16:31;282.00;2278.40
26272;DHT22;13997;48.902;12.472;2023-05-07T04:18:57;282.00;2278.40
26272;DHT22;13997;48.902;12.472;2023-05-07T04:21:22;282.00;2278.40
26272;DHT22;13997;48.902;12.472;2023-05-07T04:23:48;282.00;2278.40
26272;DHT22;13997;48.902;12.472;2023-05-07T04:26:15;282.10;2278.40
26272;DHT22;13997;48.902;12.472;2023-05-07T04:28:41;282.10;2278.40
26272;DHT22;13997;48.902;12.472;2023-05-07T04:31:07;282.10;2278.40
26272;DHT22;13997;48.902;12.472;2023-05-07T04:33:33;282.10;2278.40
26272;DHT22;13997;48.902;12.472;2023-05-07T04:36:01;282.10;2278.40
26272;DHT22;13997;48.902;12.472;2023-05-07T04:38:29;282.20;2278.40
26272;DHT22;13997;48.902;12.472;2023-05-07T04:40:55;282.20;2278.40
26272;DHT22;13997;48.902;12.472;2023-05-07T04:43:21;282.30;2278.40
26272;DHT22;13997;48.902;12.472;2023-05-07T04:45:47;282.30;2278.40
26272;DHT22;13997;48.902;12.472;2023-05-07T04:48:14;282.40;2278.40
26272;DHT22;13997;48.902;12.472;2023-05-07T04:50:40;282.40;2278.40
26272;DHT22;13997;48.902;12.472;2023-05-07T04:53:06;282.50;2278.40
26272;DHT22;13997;48.902;12.472;2023-05-07T04:55:32;307.20;2304.00
26272;DHT22;13997;48.902;12.472;2023-05-07T04:57:57;307.20;2304.00
26272;DHT22;13997;48.902;12.472;2023-05-07T05:00:23;307.30;2304.00
26272;DHT22;13997;48.902;12.472;2023-05-07T05:02:49;307.40;2304.00
26272;DHT22;13997;48.902;12.472;2023-05-07T05:05:14;307.50;2304.00
26272;DHT22;13997;48.902;12.472;2023-05-07T05:07:40;307.60;2304.00
26272;DHT22;13997;48.902;12.472;2023-05-07T05:10:06;307.70;2304.00
26272;DHT22;13997;48.902;12.472;2023-05-07T05:12:31;307.80;2304.00
26272;DHT22;13997;48.902;12.472;2023-05-07T05:14:57;307.80;2304.00
26272;DHT22;13997;48.902;12.472;2023-05-07T05:17:22;307.90;2304.00
26272;DHT22;13997;48.902;12.472;2023-05-07T05:19:48;308.00;2304.00
26272;DHT22;13997;48.902;12.472;2023-05-07T05:22:14;308.10;2304.00
26272;DHT22;13997;48.902;12.472;2023-05-07T05:24:39;332.90;2329.60
26272;DHT22;13997;48.902;12.472;2023-05-07T05:27:05;332.90;2329.60
26272;DHT22;13997;48.902;12.472;2023-05-07T05:29:30;333.00;2329.60
26272;DHT22;13997;48.902;12.472;2023-05-07T05:31:59;333.10;2329.60
26272;DHT22;13997;48.902;12.472;2023-05-07T05:34:24;333.20;2329.60
26272;DHT22;13997;48.902;12.472;2023-05-07T05:36:50;333.20;2329.60
26272;DHT22;13997;48.902;12.472;2023-05-07T05:39:15;333.30;2329.60
26272;DHT22;13997;48.902;12.472;2023-05-07T05:41:41;333.40;2329.60
26272;DHT22;13997;48.902;12.472;2023-05-07T05:44:06;333.30;2329.60
26272;DHT22;13997;48.902;12.472;2023-05-07T05:46:32;333.30;2329.60
26272;DHT22;13997;48.902;12.472;2023-05-07T05:48:58;333.30;2329.60
26272;DHT22;13997;48.902;12.472;2023-05-07T05:51:23;333.40;2329.60
26272;DHT22;13997;48.902;12.472;2023-05-07T05:53:49;333.40;2329.60
26272;DHT22;13997;48.902;12.472;2023-05-07T05:56:15;333.50;2329.60
26272;DHT22;13997;48.902;12.472;2023-05-07T05:58:41;333.60;2329.60
26272;DHT22;13997;48.902;12.472;2023-05-07T06:01:07;333.70;2329.60
26272;DHT22;13997;48.902;12.472;2023-05-07T06:03:32;333.60;2329.60
26272;DHT22;13997;48.902;12.472;2023-05-07T06:05:58;333.70;2329.60
26272;DHT22;13997;48.902;12.472;2023-05-07T06:08:25;358.40;2329.60
26272;DHT22;13997;48.902;12.472;2023-05-07T06:10:51;358.50;2329.60
26272;DHT22;13997;48.902;12.472;2023-05-07T06:13:16;358.50;2329.60
26272;DHT22;13997;48.902;12.472;2023-05-07T06:15:42;358.60;2329.60
26272;DHT22;13997;48.902;12.472;2023-05-07T06:18:07;358.70;2329.60
26272;DHT22;13997;48.902;12.472;2023-05-07T06:20:33;358.80;2329.60
26272;DHT22;13997;48.902;12.472;2023-05-07T06:22:58;359.10;2329.60
26272;DHT22;13997;48.902;12.472;2023-05-07T06:25:24;384.00;2329.60
26272;DHT22;13997;48.902;12.472;2023-05-07T06:27:50;384.20;2329.60
26272;DHT22;13997;48.902;12.472;2023-05-07T06:30:15;384.50;2329.60
26272;DHT22;13997;48.902;12.472;2023-05-07T06:32:41;384.60;2329.60
26272;DHT22;13997;48.902;12.472;2023-05-07T06:35:07;384.90;2329.60
26272;DHT22;13997;48.902;12.472;2023-05-07T06:37:32;409.80;2355.20
26272;DHT22;13997;48.902;12.472;2023-05-07T06:39:58;409.80;2355.20
26272;DHT22;13997;48.902;12.472;2023-05-07T06:42:23;409.90;2355.20
26272;DHT22;13997;48.902;12.472;2023-05-07T06:44:49;410.10;2355.20
26272;DHT22;13997;48.902;12.472;2023-05-07T06:47:15;410.10;2355.20
26272;DHT22;13997;48.902;12.472;2023-05-07T06:49:40;410.20;2355.20
26272;DHT22;13997;48.902;12.472;2023-05-07T06:52:06;410.40;2355.20
26272;DHT22;13997;48.902;12.472;2023-05-07T06:54:31;435.30;2355.20
26272;DHT22;13997;48.902;12.472;2023-05-07T06:56:57;435.50;2355.20
26272;DHT22;13997;48.902;12.472;2023-05-07T06:59:23;435.80;2355.20
26272;DHT22;13997;48.902;12.472;2023-05-07T07:01:49;436.00;2355.20
26272;DHT22;13997;48.902;12.472;2023-05-07T07:04:14;436.10;2355.20
26272;DHT22;13997;48.902;12.472;2023-05-07T07:06:40;460.80;2380.80
26272;DHT22;13997;48.902;12.472;2023-05-07T07:09:06;460.90;2380.80
26272;DHT22;13997;48.902;12.472;2023-05-07T07:13:57;461.00;2380.80
26272;DHT22;13997;48.902;12.472;2023-05-07T07:16:24;461.10;2380.80
26272;DHT22;13997;48.902;12.472;2023-05-07T07:18:49;461.30;2380.80
26272;DHT22;13997;48.902;12.472;2023-05-07T07:21:15;461.30;2380.80
26272;DHT22;13997;48.902;12.472;2023-05-07T07:23:40;461.50;2380.80
26272;DHT22;13997;48.902;12.472;2023-05-07T07:26:06;461.50;2380.80
26272;DHT22;13997;48.902;12.472;2023-05-07T07:28:32;461.60;2380.80
26272;DHT22;13997;48.902;12.472;2023-05-07T07:30:57;461.60;2380.80
26272;DHT22;13997;48.902;12.472;2023-05-07T07:33:23;486.40;2380.80
26272;DHT22;13997;48.902;12.472;2023-05-07T07:35:48;486.50;2380.80
26272;DHT22;13997;48.902;12.472;2023-05-07T07:38:14;486.50;2380.80
26272;DHT22;13997;48.902;12.472;2023-05-07T07:40:40;461.70;2380.80
26272;DHT22;13997;48.902;12.472;2023-05-07T07:43:05;486.60;2380.80
26272;DHT22;13997;48.902;12.472;2023-05-07T07:45:31;486.80;2380.80
26272;DHT22;13997;48.902;12.472;2023-05-07T07:47:57;486.90;2380.80
26272;DHT22;13997;48.902;12.472;2023-05-07T07:50:22;486.90;2380.80
26272;DHT22;13997;48.902;12.472;2023-05-07T07:52:48;486.90;2380.80
26272;DHT22;13997;48.902;12.472;2023-05-07T07:55:14;486.90;2380.80
26272;DHT22;13997;48.902;12.472;2023-05-07T07:57:43;486.80;2380.80
26272;DHT22;13997;48.902;12.472;2023-05-07T08:00:09;487.00;2380.80
26272;DHT22;13997;48.902;12.472;2023-05-07T08:02:35;487.10;2380.80
26272;DHT22;13997;48.902;12.472;2023-05-07T08:05:00;487.20;2380.80
26272;DHT22;13997;48.902;12.472;2023-05-07T08:07:26;487.10;2380.80
26272;DHT22;13997;48.902;12.472;2023-05-07T08:09:51;487.20;2380.80
26272;DHT22;13997;48.902;12.472;2023-05-07T08:12:17;487.30;2380.80
26272;DHT22;13997;48.902;12.472;2023-05-07T08:14:43;487.20;2380.80
26272;DHT22;13997;48.902;12.472;2023-05-07T08:17:09;487.30;2380.80
26272;DHT22;13997;48.902;12.472;2023-05-07T08:19:35;487.20;2380.80
26272;DHT22;13997;48.902;12.472;2023-05-07T08:22:02;487.20;2380.80
26272;DHT22;13997;48.902;12.472;2023-05-07T08:24:27;487.20;2380.80
26272;DHT22;13997;48.902;12.472;2023-05-07T08:26:53;487.30;2380.80
26272;DHT22;13997;48.902;12.472;2023-05-07T08:36:37;512.10;2380.80
26272;DHT22;13997;48.902;12.472;2023-05-07T09:05:59;537.80;2406.40
26272;DHT22;13997;48.902;12.472;2023-05-07T09:08:26;563.40;2432.00
26272;DHT22;13997;48.902;12.472;2023-05-07T09:10:52;563.60;2432.00
26272;DHT22;13997;48.902;12.472;2023-05-07T09:13:18;563.70;2432.00
26272;DHT22;13997;48.902;12.472;2023-05-07T09:15:43;563.60;2432.00
26272;DHT22;13997;48.902;12.472;2023-05-07T09:18:09;563.60;2432.00
26272;DHT22;13997;48.902;12.472;2023-05-07T09:20:36;563.60;2432.00
26272;DHT22;13997;48.902;12.472;2023-05-07T09:23:02;563.80;2432.00
26272;DHT22;13997;48.902;12.472;2023-05-07T09:25:32;563.80;2432.00
26272;DHT22;13997;48.902;12.472;2023-05-07T09:28:00;563.80;2432.00
26272;DHT22;13997;48.902;12.472;2023-05-07T09:30:30;563.80;2432.00
26272;DHT22;13997;48.902;12.472;2023-05-07T09:33:00;563.20;2432.00
26272;DHT22;13997;48.902;12.472;2023-05-07T09:35:26;563.20;2432.00
26272;DHT22;13997;48.902;12.472;2023-05-07T09:37:59;563.50;2432.00
26272;DHT22;13997;48.902;12.472;2023-05-07T09:40:27;563.70;2432.00
26272;DHT22;13997;48.902;12.472;2023-05-07T09:42:53;563.90;2432.00
26272;DHT22;13997;48.902;12.472;2023-05-07T09:47:49;589.10;2432.00
26272;DHT22;13997;48.902;12.472;2023-05-07T09:50:19;589.20;2432.00
26272;DHT22;13997;48.902;12.472;2023-05-07T09:52:46;588.90;2432.00
26272;DHT22;13997;48.902;12.472;2023-05-07T09:55:13;563.80;2432.00
26272;DHT22;13997;48.902;12.472;2023-05-07T09:57:39;563.30;2432.00
26272;DHT22;13997;48.902;12.472;2023-05-07T10:00:06;563.50;2432.00
26272;DHT22;13997;48.902;12.472;2023-05-07T10:02:35;563.70;2432.00
26272;DHT22;13997;48.902;12.472;2023-05-07T10:05:02;563.90;2432.00
26272;DHT22;13997;48.902;12.472;2023-05-07T10:07:28;588.80;2432.00
26272;DHT22;13997;48.902;12.472;2023-05-07T10:09:55;588.90;2432.00
26272;DHT22;13997;48.902;12.472;2023-05-07T10:12:21;588.90;2432.00
26272;DHT22;13997;48.902;12.472;2023-05-07T10:14:47;589.10;2432.00
26272;DHT22;13997;48.902;12.472;2023-05-07T10:17:16;589.00;2432.00
26272;DHT22;13997;48.902;12.472;2023-05-07T10:19:44;563.90;2432.00
26272;DHT22;13997;48.902;12.472;2023-05-07T10:22:11;563.80;2432.00
26272;DHT22;13997;48.902;12.472;2023-05-07T10:24:36;563.90;2432.00
26272;DHT22;13997;48.902;12.472;2023-05-07T10:27:07;564.10;2432.00
26272;DHT22;13997;48.902;12.472;2023-05-07T10:32:36;589.00;2432.00
26272;DHT22;13997;48.902;12.472;2023-05-07T10:35:06;589.40;2432.00
26272;DHT22;13997;48.902;12.472;2023-05-07T10:37:34;589.70;2432.00
26272;DHT22;13997;48.902;12.472;2023-05-07T10:40:01;614.50;2432.00
26272;DHT22;13997;48.902;12.472;2023-05-07T10:42:26;614.40;2432.00
26272;DHT22;13997;48.902;12.472;2023-05-07T10:47:18;614.70;2432.00
26272;DHT22;13997;48.902;12.472;2023-05-07T10:52:20;615.00;2432.00
26272;DHT22;13997;48.902;12.472;2023-05-07T10:54:46;615.00;2432.00
26272;DHT22;13997;48.902;12.472;2023-05-07T10:59:56;614.70;2432.00
26272;DHT22;13997;48.902;12.472;2023-05-07T11:02:22;614.50;2432.00
26272;DHT22;13997;48.902;12.472;2023-05-07T11:05:20;614.40;2432.00
26272;DHT22;13997;48.902;12.472;2023-05-07T11:07:56;614.60;2432.00
26272;DHT22;13997;48.902;12.472;2023-05-07T11:10:22;614.80;2432.00
26272;DHT22;13997;48.902;12.472;2023-05-07T11:12:49;615.00;2432.00
26272;DHT22;13997;48.902;12.472;2023-05-07T11:15:32;614.80;2432.00
26272;DHT22;13997;48.902;12.472;2023-05-07T11:17:59;614.70;2432.00
26272;DHT22;13997;48.902;12.472;2023-05-07T11:20:47;614.70;2432.00
26272;DHT22;13997;48.902;12.472;2023-05-07T11:26:07;614.50;2432.00
26272;DHT22;13997;48.902;12.472;2023-05-07T11:28:38;614.60;2432.00
26272;DHT22;13997;48.902;12.472;2023-05-07T11:31:04;614.40;2432.00
26272;DHT22;13997;48.902;12.472;2023-05-07T11:33:33;614.50;2432.00
26272;DHT22;13997;48.902;12.472;2023-05-07T11:36:04;614.40;2432.00
26272;DHT22;13997;48.902;12.472;2023-05-07T11:38:30;589.70;2432.00
26272;DHT22;13997;48.902;12.472;2023-05-07T11:40:57;589.70;2432.00
26272;DHT22;13997;48.902;12.472;2023-05-07T11:43:26;589.40;2432.00
26272;DHT22;13997;48.902;12.472;2023-05-07T11:45:52;589.30;2432.00
26272;DHT22;13997;48.902;12.472;2023-05-07T11:48:17;589.30;2432.00
26272;DHT22;13997;48.902;12.472;2023-05-07T11:50:52;589.00;2432.00
26272;DHT22;13997;48.902;12.472;2023-05-07T11:53:19;588.90;2432.00
26272;DHT22;13997;48.902;12.472;2023-05-07T11:55:46;589.00;2432.00
26272;DHT22;13997;48.902;12.472;2023-05-07T11:58:12;589.10;2432.00
26272;DHT22;13997;48.902;12.472;2023-05-07T12:00:54;589.10;2432.00
26272;DHT22;13997;48.902;12.472;2023-05-07T12:03:20;589.10;2432.00
26272;DHT22;13997;48.902;12.472;2023-05-07T12:05:47;589.30;2432.00
26272;DHT22;13997;48.902;12.472;2023-05-07T12:08:17;589.10;2432.00
26272;DHT22;13997;48.902;12.472;2023-05-07T12:10:43;589.20;2432.00
26272;DHT22;13997;48.902;12.472;2023-05-07T12:13:19;589.30;2432.00
26272;DHT22;13997;48.902;12.472;2023-05-07T12:15:45;589.20;2432.00
26272;DHT22;13997;48.902;12.472;2023-05-07T12:18:11;588.90;2432.00
26272;DHT22;13997;48.902;12.472;2023-05-07T12:20:38;589.00;2432.00
26272;DHT22;13997;48.902;12.472;2023-05-07T12:23:04;589.20;2432.00
26272;DHT22;13997;48.902;12.472;2023-05-07T12:25:40;588.90;2432.00
26272;DHT22;13997;48.902;12.472;2023-05-07T12:28:13;589.00;2432.00
26272;DHT22;13997;48.902;12.472;2023-05-07T12:30:41;589.20;2432.00
26272;DHT22;13997;48.902;12.472;2023-05-07T12:33:07;589.40;2432.00
26272;DHT22;13997;48.902;12.472;2023-05-07T12:35:40;589.30;2432.00
26272;DHT22;13997;48.902;12.472;2023-05-07T12:38:14;589.30;2432.00
26272;DHT22;13997;48.902;12.472;2023-05-07T12:40:45;589.50;2432.00
26272;DHT22;13997;48.902;12.472;2023-05-07T12:43:30;589.30;2432.00
26272;DHT22;13997;48.902;12.472;2023-05-07T12:46:06;588.90;2432.00
26272;DHT22;13997;48.902;12.472;2023-05-07T12:48:32;589.00;2432.00
26272;DHT22;13997;48.902;12.472;2023-05-07T12:51:00;589.10;2432.00
26272;DHT22;13997;48.902;12.472;2023-05-07T12:53:27;589.00;2432.00
26272;DHT22;13997;48.902;12.472;2023-05-07T12:55:55;589.10;2432.00
26272;DHT22;13997;48.902;12.472;2023-05-07T12:58:29;589.30;2432.00
26272;DHT22;13997;48.902;12.472;2023-05-07T13:00:56;589.50;2432.00
26272;DHT22;13997;48.902;12.472;2023-05-07T13:03:25;589.70;2432.00
26272;DHT22;13997;48.902;12.472;2023-05-07T13:05:51;614.50;2432.00
26272;DHT22;13997;48.902;12.472;2023-05-07T13:10:49;614.70;2432.00
26272;DHT22;13997;48.902;12.472;2023-05-07T13:13:15;614.80;2432.00
26272;DHT22;13997;48.902;12.472;2023-05-07T13:15:41;614.80;2432.00
26272;DHT22;13997;48.902;12.472;2023-05-07T13:18:06;614.80;2432.00
26272;DHT22;13997;48.902;12.472;2023-05-07T13:20:32;614.70;2432.00
26272;DHT22;13997;48.902;12.472;2023-05-07T13:22:57;614.90;2432.00
26272;DHT22;13997;48.902;12.472;2023-05-07T13:25:23;614.90;2432.00
26272;DHT22;13997;48.902;12.472;2023-05-07T13:27:48;614.90;2432.00
26272;DHT22;13997;48.902;12.472;2023-05-07T13:30:14;614.70;2432.00
26272;DHT22;13997;48.902;12.472;2023-05-07T13:32:40;614.60;2432.00
26272;DHT22;13997;48.902;12.472;2023-05-07T13:35:05;614.80;2432.00
26272;DHT22;13997;48.902;12.472;2023-05-07T13:37:31;614.90;2432.00
26272;DHT22;13997;48.902;12.472;2023-05-07T13:39:57;615.10;2432.00
26272;DHT22;13997;48.902;12.472;2023-05-07T13:42:22;615.30;2432.00
26272;DHT22;13997;48.902;12.472;2023-05-07T13:44:48;615.20;2432.00
26272;DHT22;13997;48.902;12.472;2023-05-07T13:47:13;614.90;2432.00
26272;DHT22;13997;48.902;12.472;2023-05-07T13:49:39;614.80;2432.00
26272;DHT22;13997;48.902;12.472;2023-05-07T13:52:05;614.80;2432.00
26272;DHT22;13997;48.902;12.472;2023-05-07T13:54:30;614.80;2432.00
26272;DHT22;13997;48.902;12.472;2023-05-07T13:56:56;614.40;2432.00
26272;DHT22;13997;48.902;12.472;2023-05-07T13:59:21;589.50;2432.00
26272;DHT22;13997;48.902;12.472;2023-05-07T14:01:47;589.50;2432.00
26272;DHT22;13997;48.902;12.472;2023-05-07T14:04:13;589.60;2432.00
26272;DHT22;13997;48.902;12.472;2023-05-07T14:06:38;614.40;2432.00
26272;DHT22;13997;48.902;12.472;2023-05-07T14:09:04;614.40;2432.00
26272;DHT22;13997;48.902;12.472;2023-05-07T14:11:30;614.50;2432.00
26272;DHT22;13997;48.902;12.472;2023-05-07T14:13:55;614.40;2432.00
26272;DHT22;13997;48.902;12.472;2023-05-07T14:16:22;589.70;2432.00
26272;DHT22;13997;48.902;12.472;2023-05-07T14:18:47;614.50;2432.00
26272;DHT22;13997;48.902;12.472;2023-05-07T14:21:13;589.60;2432.00
26272;DHT22;13997;48.902;12.472;2023-05-07T14:23:39;589.70;2432.00
26272;DHT22;13997;48.902;12.472;2023-05-07T14:26:04;589.70;2432.00
26272;DHT22;13997;48.902;12.472;2023-05-07T14:28:30;589.70;2432.00
26272;DHT22;13997;48.902;12.472;2023-05-07T14:30:56;589.70;2432.00
26272;DHT22;13997;48.902;12.472;2023-05-07T14:33:22;589.70;2432.00
26272;DHT22;13997;48.902;12.472;2023-05-07T14:35:47;589.50;2432.00
26272;DHT22;13997;48.902;12.472;2023-05-07T14:38:14;589.40;2432.00
26272;DHT22;13997;48.902;12.472;2023-05-07T14:40:41;589.00;2432.00
26272;DHT22;13997;48.902;12.472;2023-05-07T14:43:06;588.90;2432.00
26272;DHT22;13997;48.902;12.472;2023-05-07T14:45:32;588.80;2432.00
26272;DHT22;13997;48.902;12.472;2023-05-07T14:47:57;588.80;2432.00
26272;DHT22;13997;48.902;12.472;2023-05-07T14:50:23;588.90;2432.00
26272;DHT22;13997;48.902;12.472;2023-05-07T14:52:49;588.90;2432.00
26272;DHT22;13997;48.902;12.472;2023-05-07T14:55:14;588.90;2432.00
26272;DHT22;13997;48.902;12.472;2023-05-07T14:57:40;588.90;2432.00
26272;DHT22;13997;48.902;12.472;2023-05-07T15:00:06;588.90;2432.00
26272;DHT22;13997;48.902;12.472;2023-05-07T15:02:32;564.10;2432.00
26272;DHT22;13997;48.902;12.472;2023-05-07T15:04:59;563.80;2432.00
26272;DHT22;13997;48.902;12.472;2023-05-07T15:07:24;563.80;2432.00
26272;DHT22;13997;48.902;12.472;2023-05-07T15:09:50;563.80;2432.00
26272;DHT22;13997;48.902;12.472;2023-05-07T15:12:16;563.90;2432.00
26272;DHT22;13997;48.902;12.472;2023-05-07T15:14:42;563.90;2432.00
26272;DHT22;13997;48.902;12.472;2023-05-07T15:17:07;563.80;2432.00
26272;DHT22;13997;48.902;12.472;2023-05-07T15:19:33;563.70;2432.00
26272;DHT22;13997;48.902;12.472;2023-05-07T15:21:59;563.70;2432.00
26272;DHT22;13997;48.902;12.472;2023-05-07T15:24:28;563.80;2432.00
26272;DHT22;13997;48.902;12.472;2023-05-07T15:26:54;563.90;2432.00